createdAt,value
2018-08-24T00:01:58.970Z,99.90
2018-08-24T00:04:27.079Z,99.90
2018-08-24T00:06:55.183Z,99.90
2018-08-24T00:09:25.300Z,99.90
2018-08-24T00:11:53.402Z,99.90
2018-08-24T00:14:21.506Z,99.90
2018-08-24T00:16:49.614Z,99.90
2018-08-24T00:19:18.215Z,99.90
2018-08-24T00:21:47.370Z,99.90
2018-08-24T00:24:16.054Z,99.90
2018-08-24T00:26:44.154Z,99.90
2018-08-24T00:29:12.258Z,99.90
2018-08-24T00:31:40.790Z,99.90
2018-08-24T00:34:08.907Z,99.90
2018-08-24T00:36:37.016Z,99.90
2018-08-24T00:39:07.070Z,99.90
2018-08-24T00:41:35.235Z,99.90
2018-08-24T00:44:03.331Z,99.90
2018-08-24T00:46:31.428Z,99.90
2018-08-24T00:48:59.539Z,99.90
2018-08-24T00:51:27.639Z,99.90
2018-08-24T00:53:55.747Z,99.90
2018-08-24T00:56:23.850Z,99.90
2018-08-24T00:58:52.004Z,99.90
2018-08-24T01:01:20.131Z,99.90
2018-08-24T01:03:48.417Z,99.90
2018-08-24T01:06:20.771Z,99.90
2018-08-24T01:08:48.888Z,99.90
2018-08-24T01:11:16.986Z,99.90
2018-08-24T01:13:45.127Z,99.90
2018-08-24T01:17:20.259Z,99.90
2018-08-24T01:19:48.434Z,99.90
2018-08-24T01:22:16.846Z,99.90
2018-08-24T01:24:44.994Z,99.90
2018-08-24T01:27:13.109Z,99.90
2018-08-24T01:29:42.381Z,99.90
2018-08-24T01:32:10.483Z,99.90
2018-08-24T01:34:38.931Z,99.90
2018-08-24T01:37:07.038Z,99.90
2018-08-24T01:39:35.160Z,99.90
2018-08-24T01:42:03.258Z,99.90
2018-08-24T01:44:31.362Z,99.90
2018-08-24T01:46:59.466Z,99.90
2018-08-24T01:49:27.575Z,99.90
2018-08-24T01:51:55.683Z,99.90
2018-08-24T01:54:23.780Z,99.90
2018-08-24T01:56:51.867Z,99.90
2018-08-24T01:59:19.989Z,99.90
2018-08-24T02:01:48.103Z,99.90
2018-08-24T02:04:16.211Z,99.90
2018-08-24T02:06:44.318Z,99.90
2018-08-24T02:09:13.258Z,99.90
2018-08-24T02:11:41.371Z,99.90
2018-08-24T02:14:15.099Z,99.90
2018-08-24T02:16:43.154Z,99.90
2018-08-24T02:19:13.418Z,99.90
2018-08-24T02:21:46.945Z,99.90
2018-08-24T02:24:15.107Z,99.90
2018-08-24T02:26:44.186Z,99.90
2018-08-24T02:29:12.314Z,99.90
2018-08-24T02:31:45.682Z,99.90
2018-08-24T02:34:13.932Z,99.90
2018-08-24T02:36:42.193Z,99.90
2018-08-24T02:39:13.162Z,99.90
2018-08-24T02:41:41.724Z,99.90
2018-08-24T02:44:10.302Z,99.90
2018-08-24T02:46:39.195Z,99.90
2018-08-24T02:49:07.306Z,99.90
2018-08-24T02:51:35.406Z,99.90
2018-08-24T02:54:03.500Z,99.90
2018-08-24T02:56:31.676Z,99.90
2018-08-24T02:58:59.798Z,99.90
2018-08-24T03:01:27.918Z,99.90
2018-08-24T03:03:56.030Z,99.90
2018-08-24T03:06:24.130Z,99.90
2018-08-24T03:08:52.239Z,99.90
2018-08-24T03:11:20.369Z,99.90
2018-08-24T03:13:48.483Z,99.90
2018-08-24T03:16:16.628Z,99.90
2018-08-24T03:18:44.679Z,99.90
2018-08-24T03:21:12.785Z,99.90
2018-08-24T03:23:40.912Z,99.90
2018-08-24T03:26:09.014Z,99.90
2018-08-24T03:28:37.123Z,99.90
2018-08-24T03:31:05.233Z,99.90
2018-08-24T03:33:33.372Z,99.90
2018-08-24T03:36:01.458Z,99.90
2018-08-24T03:38:29.558Z,99.90
2018-08-24T03:40:57.662Z,99.90
2018-08-24T03:43:25.762Z,99.90
2018-08-24T03:45:53.951Z,99.90
2018-08-24T03:48:21.996Z,99.90
2018-08-24T03:50:50.094Z,99.90
2018-08-24T03:53:18.290Z,99.90
2018-08-24T03:55:46.356Z,99.90
2018-08-24T03:58:14.458Z,99.90
2018-08-24T04:00:42.619Z,99.90
2018-08-24T04:03:10.728Z,99.90
2018-08-24T04:05:38.841Z,99.90
2018-08-24T04:08:06.944Z,99.90
2018-08-24T04:10:35.050Z,99.90
2018-08-24T04:13:03.170Z,99.90
2018-08-24T04:15:31.269Z,99.90
2018-08-24T04:17:59.371Z,99.90
2018-08-24T04:20:27.479Z,99.90
2018-08-24T04:22:55.574Z,99.90
2018-08-24T04:25:23.687Z,99.90
2018-08-24T04:27:51.819Z,99.90
2018-08-24T04:30:19.922Z,99.90
2018-08-24T04:32:48.028Z,99.90
2018-08-24T04:35:16.123Z,99.90
2018-08-24T04:37:59.735Z,99.90
2018-08-24T04:40:28.055Z,99.90
2018-08-24T04:42:55.980Z,99.90
2018-08-24T04:45:24.095Z,99.90
2018-08-24T04:47:52.186Z,99.90
2018-08-24T04:50:20.508Z,99.90
2018-08-24T04:52:48.658Z,99.90
2018-08-24T04:55:16.766Z,99.90
2018-08-24T04:57:44.874Z,99.90
2018-08-24T05:00:13.017Z,99.90
2018-08-24T05:02:41.086Z,99.90
2018-08-24T05:05:09.786Z,99.90
2018-08-24T05:07:38.002Z,99.90
2018-08-24T05:10:06.200Z,99.90
2018-08-24T05:12:34.323Z,99.90
2018-08-24T05:15:02.446Z,99.90
2018-08-24T05:17:30.560Z,99.90
2018-08-24T05:19:58.667Z,99.90
2018-08-24T05:22:26.783Z,99.90
2018-08-24T05:24:55.011Z,99.90
2018-08-24T05:27:23.027Z,99.90
2018-08-24T05:29:51.118Z,99.90
2018-08-24T05:32:20.150Z,99.90
2018-08-24T05:34:48.290Z,99.90
2018-08-24T05:37:16.381Z,99.90
2018-08-24T05:39:44.518Z,99.90
2018-08-24T05:42:12.725Z,99.90
2018-08-24T05:44:40.863Z,99.90
2018-08-24T05:47:08.970Z,99.90
2018-08-24T05:49:37.080Z,99.90
2018-08-24T05:52:05.167Z,99.90
2018-08-24T05:54:33.284Z,99.90
2018-08-24T05:57:01.544Z,99.90
2018-08-24T05:59:29.638Z,99.90
2018-08-24T06:01:57.737Z,99.90
2018-08-24T06:04:25.829Z,99.90
2018-08-24T06:06:55.176Z,99.90
2018-08-24T06:09:23.378Z,99.90
2018-08-24T06:11:51.520Z,99.90
2018-08-24T06:14:19.639Z,99.90
2018-08-24T06:16:53.264Z,99.90
2018-08-24T06:19:21.667Z,99.90
2018-08-24T06:21:50.411Z,99.90
2018-08-24T06:24:18.634Z,99.90
2018-08-24T06:26:46.768Z,99.90
2018-08-24T06:29:14.876Z,99.90
2018-08-24T06:31:42.973Z,99.90
2018-08-24T06:34:11.065Z,99.90
2018-08-24T06:36:39.162Z,99.90
2018-08-24T06:39:14.166Z,99.90
2018-08-24T06:41:43.249Z,99.90
2018-08-24T06:44:11.281Z,99.90
2018-08-24T06:46:39.387Z,99.90
2018-08-24T06:49:07.577Z,99.90
2018-08-24T06:51:35.782Z,99.90
2018-08-24T06:54:03.934Z,99.90
2018-08-24T06:56:32.022Z,99.90
2018-08-24T06:59:00.142Z,99.90
2018-08-24T07:01:28.246Z,99.90
2018-08-24T07:03:56.350Z,99.90
2018-08-24T07:06:24.462Z,99.90
2018-08-24T07:08:52.570Z,99.90
2018-08-24T07:11:20.690Z,99.90
2018-08-24T07:13:49.927Z,99.90
2018-08-24T07:16:18.074Z,99.90
2018-08-24T07:18:46.194Z,99.90
2018-08-24T07:21:14.344Z,99.90
2018-08-24T07:23:42.446Z,99.90
2018-08-24T07:26:10.675Z,99.90
2018-08-24T07:28:38.898Z,99.90
2018-08-24T07:31:07.242Z,99.90
2018-08-24T07:33:35.344Z,99.90
2018-08-24T07:36:06.583Z,99.90
2018-08-24T07:38:34.694Z,99.90
2018-08-24T07:41:02.808Z,99.90
2018-08-24T07:43:30.967Z,99.90
2018-08-24T07:45:59.159Z,99.90
2018-08-24T07:48:27.289Z,99.90
2018-08-24T07:50:55.430Z,99.90
2018-08-24T07:53:23.523Z,99.90
2018-08-24T07:55:51.950Z,99.90
2018-08-24T07:58:20.058Z,99.90
2018-08-24T08:00:48.160Z,99.90
2018-08-24T08:03:16.250Z,99.90
2018-08-24T08:05:44.340Z,99.90
2018-08-24T08:08:12.435Z,99.90
2018-08-24T08:10:41.475Z,99.90
2018-08-24T08:13:10.986Z,99.90
2018-08-24T08:15:39.190Z,99.90
2018-08-24T08:18:07.318Z,99.90
2018-08-24T08:20:35.394Z,99.90
2018-08-24T08:23:03.502Z,99.90
2018-08-24T08:25:31.602Z,99.90
2018-08-24T08:27:59.723Z,99.90
2018-08-24T08:30:27.818Z,99.90
2018-08-24T08:32:55.913Z,99.90
2018-08-24T08:35:24.010Z,99.90
2018-08-24T08:37:52.098Z,99.90
2018-08-24T08:40:20.206Z,99.90
2018-08-24T08:42:48.324Z,99.90
2018-08-24T08:45:16.463Z,99.90
2018-08-24T08:47:44.519Z,99.90
2018-08-24T08:50:12.610Z,99.90
2018-08-24T08:52:40.707Z,99.90
2018-08-24T08:55:08.806Z,99.90
2018-08-24T08:57:36.908Z,99.90
2018-08-24T09:00:05.249Z,99.90
2018-08-24T09:02:33.363Z,99.90
2018-08-24T09:05:01.478Z,99.90
2018-08-24T09:07:29.586Z,99.90
2018-08-24T09:09:57.693Z,99.90
2018-08-24T09:12:25.804Z,99.90
2018-08-24T09:14:53.920Z,99.90
2018-08-24T09:17:27.336Z,99.90
2018-08-24T09:20:00.778Z,99.90
2018-08-24T09:22:34.092Z,99.90
2018-08-24T09:25:08.624Z,99.90
2018-08-24T09:27:40.343Z,99.90
2018-08-24T09:30:08.614Z,99.90
2018-08-24T09:32:36.830Z,99.90
2018-08-24T09:35:04.914Z,99.90
2018-08-24T09:37:36.323Z,99.90
2018-08-24T09:40:04.820Z,99.90
2018-08-24T09:42:32.923Z,99.90
2018-08-24T09:45:01.030Z,99.90
2018-08-24T09:47:34.510Z,99.90
2018-08-24T09:50:07.956Z,99.90
2018-08-24T09:52:36.073Z,99.90
2018-08-24T09:55:04.212Z,99.90
2018-08-24T09:57:32.323Z,99.90
2018-08-24T10:00:00.421Z,99.90
2018-08-24T10:02:33.967Z,99.90
2018-08-24T10:05:07.467Z,99.90
2018-08-24T10:07:40.936Z,99.90
2018-08-24T10:10:09.063Z,99.90
2018-08-24T10:12:38.208Z,99.90
2018-08-24T10:15:07.974Z,99.90
2018-08-24T10:17:36.083Z,99.90
2018-08-24T10:20:04.419Z,99.90
2018-08-24T10:22:33.228Z,99.90
2018-08-24T10:25:01.600Z,99.90
2018-08-24T10:27:29.710Z,99.90
2018-08-24T10:29:57.829Z,99.90
2018-08-24T10:32:26.191Z,99.90
2018-08-24T10:34:54.491Z,99.90
2018-08-24T10:37:23.771Z,99.90
2018-08-24T10:39:51.982Z,99.90
2018-08-24T10:42:20.090Z,99.90
2018-08-24T10:44:48.186Z,99.60
2018-08-24T10:47:16.312Z,98.50
2018-08-24T10:49:44.407Z,96.00
2018-08-24T10:52:12.506Z,95.00
2018-08-24T10:54:40.653Z,95.00
2018-08-24T10:57:08.726Z,97.30
2018-08-24T10:59:36.794Z,99.90
2018-08-24T11:02:04.930Z,99.90
2018-08-24T11:04:33.012Z,99.90
2018-08-24T11:07:01.129Z,99.90
2018-08-24T11:09:29.230Z,99.90
2018-08-24T11:11:57.350Z,99.90
2018-08-24T11:14:25.474Z,99.90
2018-08-24T11:16:53.658Z,99.90
2018-08-24T11:19:21.793Z,99.90
2018-08-24T11:21:49.897Z,99.90
2018-08-24T11:24:18.030Z,99.90
2018-08-24T11:26:46.267Z,99.90
2018-08-24T11:29:14.911Z,99.90
2018-08-24T11:31:43.026Z,99.90
2018-08-24T11:34:11.122Z,99.90
2018-08-24T11:36:39.282Z,99.90
2018-08-24T11:39:08.114Z,99.90
2018-08-24T11:41:36.336Z,99.90
2018-08-24T11:44:04.422Z,99.90
2018-08-24T11:46:32.556Z,99.90
2018-08-24T11:49:00.674Z,99.90
2018-08-24T11:51:28.788Z,99.90
2018-08-24T11:53:56.946Z,99.90
2018-08-24T11:56:25.001Z,99.90
2018-08-24T11:58:53.165Z,99.90
2018-08-24T12:01:21.291Z,99.90
2018-08-24T12:03:49.410Z,99.90
2018-08-24T12:06:17.507Z,98.40
2018-08-24T12:08:45.670Z,96.30
2018-08-24T12:11:14.009Z,97.40
2018-08-24T12:13:43.105Z,94.90
2018-08-24T12:16:11.262Z,91.00
2018-08-24T12:18:39.576Z,86.60
2018-08-24T12:21:11.336Z,87.40
2018-08-24T12:23:40.347Z,87.30
2018-08-24T12:26:08.528Z,85.50
2018-08-24T12:28:36.745Z,81.60
2018-08-24T12:31:05.036Z,83.50
2018-08-24T12:33:33.010Z,79.40
2018-08-24T12:36:01.114Z,74.70
2018-08-24T12:38:29.206Z,74.50
2018-08-24T12:40:57.309Z,71.40
2018-08-24T12:43:25.490Z,73.90
2018-08-24T12:45:53.514Z,74.00
2018-08-24T12:48:21.614Z,77.20
2018-08-24T12:50:49.706Z,75.30
2018-08-24T12:53:17.812Z,73.40
2018-08-24T12:55:45.946Z,70.90
2018-08-24T12:58:14.053Z,70.60
2018-08-24T13:00:42.150Z,70.90
2018-08-24T13:03:10.256Z,69.60
2018-08-24T13:05:38.350Z,67.70
2018-08-24T13:08:06.448Z,69.50
2018-08-24T13:10:34.543Z,68.80
2018-08-24T13:13:02.654Z,70.30
2018-08-24T13:15:30.754Z,72.30
2018-08-24T13:17:59.006Z,73.00
2018-08-24T13:20:27.225Z,74.50
2018-08-24T13:22:55.593Z,70.70
2018-08-24T13:25:23.946Z,68.50
2018-08-24T13:27:52.527Z,65.60
2018-08-24T13:30:21.032Z,71.90
2018-08-24T13:32:49.226Z,70.00
2018-08-24T13:35:22.142Z,69.60
2018-08-24T13:37:50.282Z,68.90
2018-08-24T13:40:18.387Z,69.40
2018-08-24T13:42:46.602Z,67.40
2018-08-24T13:45:14.712Z,67.00
2018-08-24T13:47:42.811Z,67.40
2018-08-24T13:50:10.916Z,69.60
2018-08-24T13:52:39.010Z,69.00
2018-08-24T13:55:08.074Z,68.60
2018-08-24T13:57:37.489Z,70.50
2018-08-24T14:00:05.936Z,69.00
2018-08-24T14:02:35.042Z,68.80
2018-08-24T14:05:03.879Z,68.40
2018-08-24T14:07:32.479Z,64.70
2018-08-24T14:10:00.658Z,63.40
2018-08-24T14:12:31.252Z,61.90
2018-08-24T14:14:59.458Z,60.30
2018-08-24T14:17:28.371Z,60.00
2018-08-24T14:19:56.548Z,60.20
2018-08-24T14:22:24.642Z,58.40
2018-08-24T14:24:52.751Z,58.40
2018-08-24T14:27:20.849Z,58.90
2018-08-24T14:29:48.987Z,58.90
2018-08-24T14:32:17.086Z,56.30
2018-08-24T14:34:45.333Z,55.70
2018-08-24T14:37:13.469Z,55.80
2018-08-24T14:39:41.566Z,55.50
2018-08-24T14:42:09.662Z,53.90
2018-08-24T14:44:37.771Z,57.00
2018-08-24T14:47:05.883Z,56.30
2018-08-24T14:49:34.016Z,55.40
2018-08-24T14:52:02.118Z,55.00
2018-08-24T14:54:30.228Z,55.50
2018-08-24T14:56:58.330Z,53.80
2018-08-24T14:59:26.441Z,52.60
2018-08-24T15:01:54.544Z,52.00
2018-08-24T15:04:22.694Z,51.80
2018-08-24T15:06:50.775Z,52.60
2018-08-24T15:09:18.910Z,52.30
2018-08-24T15:11:47.058Z,51.90
2018-08-24T15:14:15.162Z,51.70
2018-08-24T15:16:43.266Z,51.50
2018-08-24T15:19:11.399Z,51.70
2018-08-24T15:21:39.507Z,53.10
2018-08-24T15:24:08.258Z,53.20
2018-08-24T15:26:36.365Z,52.80
2018-08-24T15:29:04.452Z,53.70
2018-08-24T15:31:32.555Z,54.00
2018-08-24T15:34:00.659Z,54.30
2018-08-24T15:36:28.761Z,55.00
2018-08-24T15:38:56.863Z,55.70
2018-08-24T15:41:24.963Z,56.60
2018-08-24T15:43:53.071Z,57.00
2018-08-24T15:46:21.225Z,56.90
2018-08-24T15:48:49.491Z,57.80
2018-08-24T15:51:18.604Z,58.30
2018-08-24T15:53:51.223Z,58.20
2018-08-24T15:56:22.982Z,58.20
2018-08-24T15:58:57.575Z,58.20
2018-08-24T16:01:31.053Z,57.80
2018-08-24T16:03:59.744Z,59.50
2018-08-24T16:06:28.170Z,57.70
2018-08-24T16:09:01.469Z,56.90
2018-08-24T16:16:05.235Z,56.20
2018-08-24T16:18:33.320Z,55.80
2018-08-24T16:21:01.413Z,55.30
2018-08-24T16:23:29.510Z,56.10
2018-08-24T16:25:57.613Z,55.60
2018-08-24T16:28:25.712Z,55.60
2018-08-24T16:30:53.870Z,55.80
2018-08-24T16:33:21.969Z,55.30
2018-08-24T16:35:50.075Z,54.70
2018-08-24T16:38:18.207Z,55.70
2018-08-24T16:40:46.350Z,55.40
2018-08-24T16:43:32.376Z,55.90
2018-08-24T16:46:00.482Z,55.50
2018-08-24T16:48:28.601Z,56.60
2018-08-24T16:50:57.562Z,56.50
2018-08-24T16:53:25.692Z,56.40
2018-08-24T16:55:53.793Z,56.30
2018-08-24T16:58:22.529Z,55.30
2018-08-24T17:01:08.736Z,54.30
2018-08-24T17:03:41.539Z,54.60
2018-08-24T17:06:12.054Z,55.20
2018-08-24T17:08:40.679Z,55.30
2018-08-24T17:11:09.054Z,55.90
2018-08-24T17:13:44.888Z,55.40
2018-08-24T17:16:19.846Z,54.70
2018-08-24T17:19:11.690Z,55.00
2018-08-24T17:21:43.560Z,56.10
2018-08-24T17:24:13.255Z,55.40
2018-08-24T17:26:47.492Z,56.10
2018-08-24T17:29:45.615Z,55.90
2018-08-24T17:32:28.407Z,56.30
2018-08-24T17:34:57.465Z,56.30
2018-08-24T17:37:26.460Z,56.10
2018-08-24T17:50:15.180Z,57.20
2018-08-24T17:52:43.307Z,56.60
2018-08-24T17:55:11.456Z,57.00
2018-08-24T17:57:39.570Z,57.10
2018-08-24T18:00:07.678Z,57.70
2018-08-24T18:02:35.815Z,57.50
2018-08-24T18:05:04.024Z,58.40
2018-08-24T18:07:32.127Z,58.20
2018-08-24T18:10:00.249Z,58.00
2018-08-24T18:12:28.418Z,58.50
2018-08-24T18:14:56.695Z,59.30
2018-08-24T18:17:24.842Z,59.30
2018-08-24T18:19:52.993Z,59.40
2018-08-24T18:22:21.109Z,59.20
2018-08-24T18:24:49.238Z,60.60
2018-08-24T18:27:17.388Z,62.40
2018-08-24T18:29:45.600Z,61.60
2018-08-24T18:32:13.675Z,60.90
2018-08-24T18:34:41.830Z,61.40
2018-08-24T18:37:09.994Z,61.10
2018-08-24T18:39:38.071Z,62.50
2018-08-24T18:42:06.202Z,65.80
2018-08-24T18:44:34.337Z,65.40
2018-08-24T18:47:02.462Z,66.60
2018-08-24T18:49:30.582Z,69.70
2018-08-24T18:51:58.723Z,71.50
2018-08-24T18:54:26.856Z,73.50
2018-08-24T18:56:54.987Z,76.00
2018-08-24T18:59:23.153Z,77.30
2018-08-24T19:01:51.380Z,77.70
2018-08-24T19:04:19.535Z,80.80
2018-08-24T19:06:47.743Z,86.70
2018-08-24T19:09:15.895Z,87.30
2018-08-24T19:11:49.600Z,91.40
2018-08-24T19:14:17.731Z,95.90
2018-08-24T19:16:45.858Z,95.40
2018-08-24T19:19:19.537Z,97.40
2018-08-24T19:21:48.913Z,97.10
2018-08-24T19:24:17.058Z,95.70
2018-08-24T19:26:45.278Z,98.70
2018-08-24T19:29:18.791Z,99.90
2018-08-24T19:31:46.965Z,99.90
2018-08-24T19:34:15.053Z,99.90
2018-08-24T19:36:43.214Z,99.90
2018-08-24T19:39:13.183Z,99.90
2018-08-24T19:41:46.805Z,99.90
2018-08-24T19:44:15.020Z,99.90
2018-08-24T19:46:43.232Z,99.90
2018-08-24T19:49:14.995Z,99.90
2018-08-24T19:51:43.371Z,99.90
2018-08-24T19:54:12.048Z,99.90
2018-08-24T19:56:40.193Z,99.90
2018-08-24T19:59:09.923Z,99.90
2018-08-24T20:01:42.029Z,99.90
2018-08-24T20:04:10.204Z,99.90
2018-08-24T20:06:43.738Z,99.90
2018-08-24T20:09:17.594Z,99.90
2018-08-24T20:11:47.602Z,99.90
2018-08-24T20:14:15.822Z,99.90
2018-08-24T20:16:49.424Z,99.90
2018-08-24T20:19:17.549Z,99.90
2018-08-24T20:21:45.703Z,99.90
2018-08-24T20:24:13.841Z,99.90
2018-08-24T20:26:41.955Z,99.90
2018-08-24T20:29:10.127Z,99.90
2018-08-24T20:31:38.259Z,99.90
2018-08-24T20:34:06.414Z,99.90
2018-08-24T20:36:34.551Z,99.90
2018-08-24T20:39:02.771Z,99.90
2018-08-24T20:41:30.895Z,99.90
2018-08-24T20:43:59.022Z,99.90
2018-08-24T20:46:27.158Z,99.90
2018-08-24T20:48:55.296Z,99.90
2018-08-24T20:51:23.431Z,99.90
2018-08-24T20:53:51.581Z,99.90
2018-08-24T20:56:19.760Z,99.90
2018-08-24T20:58:47.983Z,99.90
2018-08-24T21:01:21.806Z,99.90
2018-08-24T21:03:49.942Z,99.90
2018-08-24T21:06:26.712Z,99.90
2018-08-24T21:08:54.842Z,99.90
2018-08-24T21:11:22.990Z,99.90
2018-08-24T21:13:51.173Z,99.90
2018-08-24T21:16:19.331Z,99.90
2018-08-24T21:18:47.524Z,99.90
2018-08-24T21:21:15.643Z,99.90
2018-08-24T21:23:43.930Z,99.90
2018-08-24T21:26:12.042Z,99.90
2018-08-24T21:28:41.230Z,99.90
2018-08-24T21:31:09.372Z,99.90
2018-08-24T21:33:37.486Z,99.90
2018-08-24T21:36:05.619Z,99.90
2018-08-24T21:38:33.771Z,99.90
2018-08-24T21:41:02.937Z,99.90
2018-08-24T21:43:31.061Z,99.90
2018-08-24T21:45:59.214Z,99.90
2018-08-24T21:48:27.366Z,99.90
2018-08-24T21:50:55.498Z,99.90
2018-08-24T21:53:23.662Z,99.90
2018-08-24T21:55:52.971Z,99.90
2018-08-24T21:58:21.114Z,99.90
2018-08-24T22:00:49.259Z,99.90
2018-08-24T22:03:17.401Z,99.90
2018-08-24T22:05:45.592Z,99.90
2018-08-24T22:08:13.758Z,99.90
2018-08-24T22:10:41.914Z,99.90
2018-08-24T22:13:10.078Z,99.90
2018-08-24T22:15:38.244Z,99.90
2018-08-24T22:18:06.388Z,99.90
2018-08-24T22:20:34.567Z,99.90
2018-08-24T22:23:02.711Z,99.90
2018-08-24T22:25:30.942Z,99.90
2018-08-24T22:27:59.106Z,99.90
2018-08-24T22:30:28.332Z,99.90
2018-08-24T22:32:56.486Z,99.90
2018-08-24T22:35:24.668Z,99.90
2018-08-24T22:37:52.818Z,99.90
2018-08-24T22:40:20.946Z,99.90
2018-08-24T22:42:49.097Z,99.90
2018-08-24T22:45:17.289Z,99.90
2018-08-24T22:47:45.454Z,99.90
2018-08-24T22:50:14.207Z,99.90
2018-08-24T22:52:42.339Z,99.90
2018-08-24T22:55:10.775Z,99.90
2018-08-24T22:57:38.920Z,99.90
2018-08-24T23:00:07.087Z,99.90
2018-08-24T23:02:35.230Z,99.90
2018-08-24T23:05:03.366Z,99.90
2018-08-24T23:07:31.490Z,99.90
2018-08-24T23:09:59.667Z,99.90
2018-08-24T23:12:27.798Z,99.90
2018-08-24T23:14:56.306Z,99.90
2018-08-24T23:17:24.435Z,99.90
2018-08-24T23:19:52.694Z,99.90
2018-08-24T23:22:20.861Z,99.90
2018-08-24T23:24:49.012Z,99.90
2018-08-24T23:27:17.296Z,99.90
2018-08-24T23:29:45.450Z,99.90
2018-08-24T23:32:13.582Z,99.90
2018-08-24T23:34:41.755Z,99.90
2018-08-24T23:37:09.871Z,99.90
2018-08-24T23:39:38.010Z,99.90
2018-08-24T23:42:06.299Z,99.90
2018-08-24T23:44:34.453Z,99.90
2018-08-24T23:47:02.712Z,99.90
2018-08-24T23:49:30.894Z,99.90
2018-08-24T23:51:59.023Z,99.90
2018-08-24T23:54:27.198Z,99.90
2018-08-24T23:56:55.359Z,99.90
2018-08-24T23:59:23.503Z,99.90
